sensor_id;sensor_type;location;lat;lon;timestamp;pressure;altitude;pressure_sealevel;temperature;humidity
74675;BME280;63200;48.810;12.352;2023-01-15T00:01:04;96649.78;;;6.69;73.17
74675;BME280;63200;48.810;12.352;2023-01-15T00:03:30;96668.28;;;6.86;73.19
74675;BME280;63200;48.810;12.352;2023-01-15T00:05:55;96627.91;;;6.70;72.67
74675;BME280;63200;48.810;12.352;2023-01-15T00:08:20;96603.97;;;6.58;72.61
74675;BME280;63200;48.810;12.352;2023-01-15T00:10:46;96583.63;;;6.37;73.18
74675;BME280;63200;48.810;12.352;2023-01-15T00:13:11;96647.91;;;6.59;73.72
74675;BME280;63200;48.810;12.352;2023-01-15T00:15:36;96638.81;;;6.49;73.58
74675;BME280;63200;48.810;12.352;2023-01-15T00:18:02;96635.75;;;6.66;73.11
74675;BME280;63200;48.810;12.352;2023-01-15T00:20:28;96627.97;;;6.60;73.14
74675;BME280;63200;48.810;12.352;2023-01-15T00:22:53;96599.53;;;6.38;73.22
74675;BME280;63200;48.810;12.352;2023-01-15T00:25:19;96617.78;;;6.52;73.27
74675;BME280;63200;48.810;12.352;2023-01-15T00:28:03;96620.06;;;6.29;74.16
74675;BME280;63200;48.810;12.352;2023-01-15T00:30:28;96582.50;;;5.93;74.62
74675;BME280;63200;48.810;12.352;2023-01-15T00:32:54;96583.59;;;5.87;75.07
74675;BME280;63200;48.810;12.352;2023-01-15T00:35:21;96606.16;;;6.06;75.09
74675;BME280;63200;48.810;12.352;2023-01-15T00:37:47;96593.00;;;5.89;75.21
74675;BME280;63200;48.810;12.352;2023-01-15T00:40:14;96604.03;;;5.98;75.49
74675;BME280;63200;48.810;12.352;2023-01-15T00:42:39;96564.22;;;5.79;75.59
74675;BME280;63200;48.810;12.352;2023-01-15T00:45:06;96595.91;;;6.08;75.36
74675;BME280;63200;48.810;12.352;2023-01-15T00:47:36;96573.31;;;5.99;74.67
74675;BME280;63200;48.810;12.352;2023-01-15T00:50:03;96568.47;;;6.01;74.28
74675;BME280;63200;48.810;12.352;2023-01-15T00:52:29;96597.97;;;6.27;73.71
74675;BME280;63200;48.810;12.352;2023-01-15T00:54:54;96565.66;;;6.22;72.88
74675;BME280;63200;48.810;12.352;2023-01-15T00:57:20;96557.41;;;6.03;73.67
74675;BME280;63200;48.810;12.352;2023-01-15T00:59:45;96588.31;;;6.21;73.86
74675;BME280;63200;48.810;12.352;2023-01-15T01:02:10;96591.78;;;6.26;73.36
74675;BME280;63200;48.810;12.352;2023-01-15T01:04:36;96581.25;;;6.30;72.91
74675;BME280;63200;48.810;12.352;2023-01-15T01:07:01;96561.38;;;6.15;72.69
74675;BME280;63200;48.810;12.352;2023-01-15T01:09:26;96550.34;;;6.12;71.76
74675;BME280;63200;48.810;12.352;2023-01-15T01:11:52;96567.66;;;6.45;70.33
74675;BME280;63200;48.810;12.352;2023-01-15T01:14:17;96558.28;;;6.38;69.99
74675;BME280;63200;48.810;12.352;2023-01-15T01:16:42;96561.03;;;6.32;70.60
74675;BME280;63200;48.810;12.352;2023-01-15T01:19:10;96555.78;;;6.46;69.95
74675;BME280;63200;48.810;12.352;2023-01-15T01:21:37;96588.22;;;6.31;70.48
74675;BME280;63200;48.810;12.352;2023-01-15T01:24:03;96579.31;;;6.36;70.37
74675;BME280;63200;48.810;12.352;2023-01-15T01:26:29;96575.50;;;6.47;70.06
74675;BME280;63200;48.810;12.352;2023-01-15T01:28:55;96574.50;;;6.32;70.64
74675;BME280;63200;48.810;12.352;2023-01-15T01:31:21;96563.47;;;6.29;70.82
74675;BME280;63200;48.810;12.352;2023-01-15T01:33:48;96562.25;;;6.45;71.17
74675;BME280;63200;48.810;12.352;2023-01-15T01:36:14;96560.81;;;6.19;72.57
74675;BME280;63200;48.810;12.352;2023-01-15T01:38:40;96516.75;;;5.89;73.06
74675;BME280;63200;48.810;12.352;2023-01-15T01:41:05;96544.41;;;6.10;72.49
74675;BME280;63200;48.810;12.352;2023-01-15T01:43:30;96540.72;;;6.00;72.24
74675;BME280;63200;48.810;12.352;2023-01-15T01:45:56;96524.34;;;5.81;72.63
74675;BME280;63200;48.810;12.352;2023-01-15T01:48:29;96543.13;;;6.07;71.89
74675;BME280;63200;48.810;12.352;2023-01-15T01:50:58;96519.09;;;6.11;70.80
74675;BME280;63200;48.810;12.352;2023-01-15T01:53:27;96539.84;;;6.15;71.51
74675;BME280;63200;48.810;12.352;2023-01-15T01:55:53;96543.94;;;6.03;71.87
74675;BME280;63200;48.810;12.352;2023-01-15T01:58:21;96510.94;;;5.66;72.67
74675;BME280;63200;48.810;12.352;2023-01-15T02:00:47;96534.94;;;5.67;72.66
74675;BME280;63200;48.810;12.352;2023-01-15T02:03:14;96507.47;;;5.60;72.60
74675;BME280;63200;48.810;12.352;2023-01-15T02:05:45;96532.38;;;6.02;71.82
74675;BME280;63200;48.810;12.352;2023-01-15T02:08:12;96522.34;;;6.08;71.01
74675;BME280;63200;48.810;12.352;2023-01-15T02:10:37;96508.94;;;5.92;71.17
74675;BME280;63200;48.810;12.352;2023-01-15T02:13:10;96519.97;;;6.01;71.07
74675;BME280;63200;48.810;12.352;2023-01-15T02:15:42;96509.97;;;6.07;70.46
74675;BME280;63200;48.810;12.352;2023-01-15T02:18:22;96485.78;;;5.91;70.13
74675;BME280;63200;48.810;12.352;2023-01-15T02:20:53;96496.81;;;5.95;69.74
74675;BME280;63200;48.810;12.352;2023-01-15T02:29:02;96476.75;;;5.72;71.17
74675;BME280;63200;48.810;12.352;2023-01-15T02:31:36;96499.28;;;5.86;72.15
74675;BME280;63200;48.810;12.352;2023-01-15T02:34:15;96484.03;;;5.61;73.30
74675;BME280;63200;48.810;12.352;2023-01-15T02:36:47;96497.72;;;5.75;72.48
74675;BME280;63200;48.810;12.352;2023-01-15T02:39:16;96482.13;;;5.72;72.97
74675;BME280;63200;48.810;12.352;2023-01-15T02:41:45;96449.16;;;5.45;72.82
74675;BME280;63200;48.810;12.352;2023-01-15T02:44:14;96483.19;;;5.76;72.94
74675;BME280;63200;48.810;12.352;2023-01-15T02:46:42;96463.06;;;5.63;73.09
74675;BME280;63200;48.810;12.352;2023-01-15T02:49:10;96472.47;;;5.65;73.29
74675;BME280;63200;48.810;12.352;2023-01-15T02:51:45;96443.19;;;5.48;73.48
74675;BME280;63200;48.810;12.352;2023-01-15T02:54:15;96471.38;;;5.66;73.58
74675;BME280;63200;48.810;12.352;2023-01-15T02:56:44;96427.63;;;5.45;73.28
74675;BME280;63200;48.810;12.352;2023-01-15T02:59:16;96450.91;;;5.65;73.00
74675;BME280;63200;48.810;12.352;2023-01-15T03:01:47;96467.00;;;5.81;72.75
74675;BME280;63200;48.810;12.352;2023-01-15T03:09:36;96432.41;;;5.54;71.85
74675;BME280;63200;48.810;12.352;2023-01-15T03:14:43;96443.09;;;6.14;69.42
74675;BME280;63200;48.810;12.352;2023-01-15T03:17:22;96447.53;;;5.99;70.16
74675;BME280;63200;48.810;12.352;2023-01-15T03:20:15;96447.44;;;5.65;72.56
74675;BME280;63200;48.810;12.352;2023-01-15T03:22:44;96400.00;;;5.24;72.84
74675;BME280;63200;48.810;12.352;2023-01-15T03:25:23;96438.59;;;5.54;72.79
74675;BME280;63200;48.810;12.352;2023-01-15T03:27:52;96449.03;;;5.61;72.11
74675;BME280;63200;48.810;12.352;2023-01-15T03:30:20;96423.34;;;5.34;72.95
74675;BME280;63200;48.810;12.352;2023-01-15T03:32:46;96433.97;;;5.65;72.28
74675;BME280;63200;48.810;12.352;2023-01-15T03:36:04;96424.34;;;5.98;70.75
74675;BME280;63200;48.810;12.352;2023-01-15T03:38:28;96443.94;;;5.59;72.46
74675;BME280;63200;48.810;12.352;2023-01-15T03:41:03;96435.69;;;5.45;73.23
74675;BME280;63200;48.810;12.352;2023-01-15T03:49:37;96411.28;;;5.21;74.06
74675;BME280;63200;48.810;12.352;2023-01-15T03:52:33;96424.25;;;5.69;72.68
74675;BME280;63200;48.810;12.352;2023-01-15T03:55:14;96423.59;;;5.88;71.37
74675;BME280;63200;48.810;12.352;2023-01-15T03:57:56;96428.50;;;5.75;71.51
74675;BME280;63200;48.810;12.352;2023-01-15T04:00:29;96396.47;;;5.24;72.74
74675;BME280;63200;48.810;12.352;2023-01-15T04:02:58;96399.97;;;5.29;73.05
74675;BME280;63200;48.810;12.352;2023-01-15T04:05:27;96396.44;;;5.34;72.92
74675;BME280;63200;48.810;12.352;2023-01-15T04:07:53;96410.47;;;5.76;71.95
74675;BME280;63200;48.810;12.352;2023-01-15T04:10:21;96369.06;;;5.22;72.99
74675;BME280;63200;48.810;12.352;2023-01-15T04:12:46;96397.03;;;5.26;74.73
74675;BME280;63200;48.810;12.352;2023-01-15T04:15:12;96396.25;;;5.20;74.30
74675;BME280;63200;48.810;12.352;2023-01-15T04:17:37;96394.91;;;5.17;74.97
74675;BME280;63200;48.810;12.352;2023-01-15T04:20:04;96405.13;;;5.21;74.77
74675;BME280;63200;48.810;12.352;2023-01-15T04:22:29;96381.19;;;5.19;74.39
74675;BME280;63200;48.810;12.352;2023-01-15T04:24:55;96381.88;;;5.40;72.36
74675;BME280;63200;48.810;12.352;2023-01-15T04:27:20;96382.25;;;5.23;74.04
74675;BME280;63200;48.810;12.352;2023-01-15T04:29:46;96357.88;;;4.99;73.79
74675;BME280;63200;48.810;12.352;2023-01-15T04:32:11;96390.13;;;5.54;72.19
74675;BME280;63200;48.810;12.352;2023-01-15T04:34:36;96374.38;;;5.37;72.37
74675;BME280;63200;48.810;12.352;2023-01-15T04:37:01;96377.06;;;5.37;72.70
74675;BME280;63200;48.810;12.352;2023-01-15T04:39:27;96375.75;;;5.29;73.23
74675;BME280;63200;48.810;12.352;2023-01-15T04:41:52;96364.66;;;5.41;72.14
74675;BME280;63200;48.810;12.352;2023-01-15T04:44:36;96372.19;;;5.39;72.14
74675;BME280;63200;48.810;12.352;2023-01-15T04:47:02;96352.06;;;5.26;72.71
74675;BME280;63200;48.810;12.352;2023-01-15T04:49:27;96339.78;;;5.15;73.10
74675;BME280;63200;48.810;12.352;2023-01-15T04:51:53;96363.16;;;5.20;74.82
74675;BME280;63200;48.810;12.352;2023-01-15T04:54:19;96333.69;;;4.94;74.96
74675;BME280;63200;48.810;12.352;2023-01-15T04:56:48;96360.50;;;5.09;75.14
74675;BME280;63200;48.810;12.352;2023-01-15T04:59:17;96350.56;;;5.10;75.20
74675;BME280;63200;48.810;12.352;2023-01-15T05:01:42;96307.44;;;4.70;75.99
74675;BME280;63200;48.810;12.352;2023-01-15T05:04:08;96342.34;;;4.86;75.82
74675;BME280;63200;48.810;12.352;2023-01-15T05:06:33;96348.16;;;5.03;75.78
74675;BME280;63200;48.810;12.352;2023-01-15T05:08:59;96337.75;;;4.91;75.49
74675;BME280;63200;48.810;12.352;2023-01-15T05:11:25;96375.88;;;5.04;76.11
74675;BME280;63200;48.810;12.352;2023-01-15T05:13:51;96345.28;;;4.84;75.69
74675;BME280;63200;48.810;12.352;2023-01-15T05:16:19;96362.78;;;4.81;75.49
74675;BME280;63200;48.810;12.352;2023-01-15T05:18:46;96356.28;;;4.88;74.61
74675;BME280;63200;48.810;12.352;2023-01-15T05:23:44;96362.59;;;5.23;73.06
74675;BME280;63200;48.810;12.352;2023-01-15T05:26:10;96359.91;;;5.28;73.29
74675;BME280;63200;48.810;12.352;2023-01-15T05:28:35;96344.47;;;5.39;71.96
74675;BME280;63200;48.810;12.352;2023-01-15T05:31:05;96337.84;;;5.21;73.30
74675;BME280;63200;48.810;12.352;2023-01-15T05:33:31;96343.47;;;5.29;73.78
74675;BME280;63200;48.810;12.352;2023-01-15T05:36:00;96342.28;;;5.46;72.79
74675;BME280;63200;48.810;12.352;2023-01-15T05:38:25;96336.09;;;5.45;72.88
74675;BME280;63200;48.810;12.352;2023-01-15T05:40:51;96334.94;;;5.57;71.77
74675;BME280;63200;48.810;12.352;2023-01-15T05:43:16;96336.97;;;5.30;72.66
74675;BME280;63200;48.810;12.352;2023-01-15T05:45:41;96327.94;;;5.16;73.92
74675;BME280;63200;48.810;12.352;2023-01-15T05:48:06;96295.72;;;5.06;73.82
74675;BME280;63200;48.810;12.352;2023-01-15T05:50:32;96336.63;;;5.42;73.42
74675;BME280;63200;48.810;12.352;2023-01-15T05:52:57;96288.34;;;5.22;73.16
74675;BME280;63200;48.810;12.352;2023-01-15T05:55:22;96324.97;;;5.17;74.11
74675;BME280;63200;48.810;12.352;2023-01-15T05:57:48;96322.47;;;5.26;74.17
74675;BME280;63200;48.810;12.352;2023-01-15T06:00:13;96295.31;;;5.28;73.42
74675;BME280;63200;48.810;12.352;2023-01-15T06:02:39;96325.16;;;5.26;74.33
74675;BME280;63200;48.810;12.352;2023-01-15T06:05:04;96284.72;;;4.97;74.85
74675;BME280;63200;48.810;12.352;2023-01-15T06:07:30;96307.31;;;5.41;74.07
74675;BME280;63200;48.810;12.352;2023-01-15T06:09:55;96300.75;;;5.17;74.61
74675;BME280;63200;48.810;12.352;2023-01-15T06:12:20;96299.00;;;5.37;73.89
74675;BME280;63200;48.810;12.352;2023-01-15T06:14:46;96261.47;;;5.16;73.59
74675;BME280;63200;48.810;12.352;2023-01-15T06:17:11;96248.09;;;5.01;73.88
74675;BME280;63200;48.810;12.352;2023-01-15T06:19:39;96233.03;;;5.05;73.11
74675;BME280;63200;48.810;12.352;2023-01-15T06:22:04;96278.69;;;5.55;72.42
74675;BME280;63200;48.810;12.352;2023-01-15T06:24:29;96289.41;;;5.60;72.53
74675;BME280;63200;48.810;12.352;2023-01-15T06:26:54;96292.06;;;5.65;72.47
74675;BME280;63200;48.810;12.352;2023-01-15T06:29:20;96294.81;;;5.55;72.65
74675;BME280;63200;48.810;12.352;2023-01-15T06:31:45;96272.63;;;5.34;72.96
74675;BME280;63200;48.810;12.352;2023-01-15T06:34:11;96254.19;;;5.17;73.36
74675;BME280;63200;48.810;12.352;2023-01-15T06:36:37;96260.94;;;5.14;73.93
74675;BME280;63200;48.810;12.352;2023-01-15T06:39:02;96311.06;;;5.40;73.84
74675;BME280;63200;48.810;12.352;2023-01-15T06:41:28;96258.13;;;5.35;72.96
74675;BME280;63200;48.810;12.352;2023-01-15T06:44:14;96285.50;;;5.42;73.20
74675;BME280;63200;48.810;12.352;2023-01-15T06:47:01;96265.88;;;5.42;73.19
74675;BME280;63200;48.810;12.352;2023-01-15T06:49:45;96263.13;;;5.47;73.20
74675;BME280;63200;48.810;12.352;2023-01-15T06:52:11;96257.25;;;5.40;73.11
74675;BME280;63200;48.810;12.352;2023-01-15T06:54:36;96263.56;;;5.59;72.52
74675;BME280;63200;48.810;12.352;2023-01-15T06:57:02;96252.16;;;5.38;73.54
74675;BME280;63200;48.810;12.352;2023-01-15T06:59:27;96252.72;;;5.35;73.78
74675;BME280;63200;48.810;12.352;2023-01-15T07:01:53;96239.03;;;5.31;73.61
74675;BME280;63200;48.810;12.352;2023-01-15T07:04:18;96267.91;;;5.55;73.43
74675;BME280;63200;48.810;12.352;2023-01-15T07:06:43;96253.09;;;5.58;74.30
74675;BME280;63200;48.810;12.352;2023-01-15T07:09:09;96231.53;;;5.58;73.82
74675;BME280;63200;48.810;12.352;2023-01-15T07:11:35;96230.13;;;5.65;74.29
74675;BME280;63200;48.810;12.352;2023-01-15T07:14:13;96226.69;;;5.60;74.50
74675;BME280;63200;48.810;12.352;2023-01-15T07:16:38;96232.53;;;5.67;74.58
74675;BME280;63200;48.810;12.352;2023-01-15T07:19:03;96180.84;;;5.36;74.57
74675;BME280;63200;48.810;12.352;2023-01-15T07:21:29;96224.41;;;5.72;73.96
74675;BME280;63200;48.810;12.352;2023-01-15T07:23:58;96228.00;;;5.92;72.45
74675;BME280;63200;48.810;12.352;2023-01-15T07:26:23;96193.53;;;5.89;71.36
74675;BME280;63200;48.810;12.352;2023-01-15T07:28:49;96218.09;;;6.16;71.93
74675;BME280;63200;48.810;12.352;2023-01-15T07:31:14;96175.34;;;6.29;69.74
74675;BME280;63200;48.810;12.352;2023-01-15T07:33:39;96226.63;;;6.86;69.27
74675;BME280;63200;48.810;12.352;2023-01-15T07:36:05;96224.06;;;7.14;68.16
74675;BME280;63200;48.810;12.352;2023-01-15T07:38:30;96201.63;;;6.99;68.07
74675;BME280;63200;48.810;12.352;2023-01-15T07:40:56;96236.75;;;7.32;67.54
74675;BME280;63200;48.810;12.352;2023-01-15T07:43:41;96241.78;;;7.39;66.99
74675;BME280;63200;48.810;12.352;2023-01-15T07:46:25;96171.00;;;7.09;66.92
74675;BME280;63200;48.810;12.352;2023-01-15T07:49:09;96173.25;;;7.02;66.90
74675;BME280;63200;48.810;12.352;2023-01-15T07:51:53;96220.56;;;7.32;67.73
74675;BME280;63200;48.810;12.352;2023-01-15T07:54:19;96233.38;;;7.41;67.10
74675;BME280;63200;48.810;12.352;2023-01-15T07:56:44;96183.81;;;7.17;67.21
74675;BME280;63200;48.810;12.352;2023-01-15T07:59:09;96230.81;;;7.49;67.66
74675;BME280;63200;48.810;12.352;2023-01-15T08:01:34;96221.78;;;7.40;67.21
74675;BME280;63200;48.810;12.352;2023-01-15T08:04:00;96233.44;;;7.55;66.30
74675;BME280;63200;48.810;12.352;2023-01-15T08:06:25;96236.91;;;7.55;67.46
74675;BME280;63200;48.810;12.352;2023-01-15T08:08:50;96218.41;;;7.48;67.37
74675;BME280;63200;48.810;12.352;2023-01-15T08:11:16;96216.06;;;7.61;66.94
74675;BME280;63200;48.810;12.352;2023-01-15T08:14:00;96214.38;;;7.79;66.57
74675;BME280;63200;48.810;12.352;2023-01-15T08:16:43;96204.38;;;7.79;67.67
74675;BME280;63200;48.810;12.352;2023-01-15T08:19:09;96186.88;;;7.77;67.60
74675;BME280;63200;48.810;12.352;2023-01-15T08:21:34;96191.66;;;7.80;67.58
74675;BME280;63200;48.810;12.352;2023-01-15T08:23:59;96200.47;;;7.86;68.00
74675;BME280;63200;48.810;12.352;2023-01-15T08:26:25;96195.47;;;7.79;67.94
74675;BME280;63200;48.810;12.352;2023-01-15T08:28:50;96218.22;;;8.06;67.95
74675;BME280;63200;48.810;12.352;2023-01-15T08:31:15;96209.44;;;8.14;67.84
74675;BME280;63200;48.810;12.352;2023-01-15T08:33:41;96211.91;;;8.10;68.34
74675;BME280;63200;48.810;12.352;2023-01-15T08:36:06;96207.63;;;8.23;67.49
74675;BME280;63200;48.810;12.352;2023-01-15T08:38:32;96198.00;;;8.17;67.70
74675;BME280;63200;48.810;12.352;2023-01-15T08:40:58;96199.09;;;8.30;67.70
74675;BME280;63200;48.810;12.352;2023-01-15T08:43:29;96162.97;;;8.12;68.11
74675;BME280;63200;48.810;12.352;2023-01-15T08:45:59;96204.41;;;8.49;67.86
74675;BME280;63200;48.810;12.352;2023-01-15T08:48:26;96185.09;;;8.42;67.55
74675;BME280;63200;48.810;12.352;2023-01-15T08:50:51;96192.88;;;8.71;67.90
74675;BME280;63200;48.810;12.352;2023-01-15T08:53:17;96199.38;;;8.84;67.96
74675;BME280;63200;48.810;12.352;2023-01-15T08:55:47;96191.13;;;8.89;68.17
74675;BME280;63200;48.810;12.352;2023-01-15T08:58:13;96199.81;;;9.00;68.21
74675;BME280;63200;48.810;12.352;2023-01-15T09:00:38;96197.38;;;9.12;67.83
74675;BME280;63200;48.810;12.352;2023-01-15T09:03:04;96187.41;;;9.22;66.63
74675;BME280;63200;48.810;12.352;2023-01-15T09:05:29;96192.66;;;9.41;67.86
74675;BME280;63200;48.810;12.352;2023-01-15T09:07:54;96194.94;;;9.47;67.59
74675;BME280;63200;48.810;12.352;2023-01-15T09:10:20;96175.16;;;9.47;66.43
74675;BME280;63200;48.810;12.352;2023-01-15T09:12:46;96200.31;;;9.70;66.47
74675;BME280;63200;48.810;12.352;2023-01-15T09:15:11;96195.38;;;9.72;66.11
74675;BME280;63200;48.810;12.352;2023-01-15T09:17:36;96186.38;;;9.86;65.83
74675;BME280;63200;48.810;12.352;2023-01-15T09:20:06;96198.59;;;10.14;64.46
74675;BME280;63200;48.810;12.352;2023-01-15T09:22:32;96201.44;;;10.09;65.18
74675;BME280;63200;48.810;12.352;2023-01-15T09:24:57;96191.91;;;10.12;65.08
74675;BME280;63200;48.810;12.352;2023-01-15T09:27:23;96172.66;;;9.91;65.36
74675;BME280;63200;48.810;12.352;2023-01-15T09:29:48;96195.94;;;10.23;63.67
74675;BME280;63200;48.810;12.352;2023-01-15T09:32:14;96190.06;;;10.30;63.44
74675;BME280;63200;48.810;12.352;2023-01-15T09:34:39;96192.13;;;10.33;63.61
74675;BME280;63200;48.810;12.352;2023-01-15T09:37:04;96194.16;;;10.59;61.80
74675;BME280;63200;48.810;12.352;2023-01-15T09:39:30;96183.28;;;10.50;62.53
74675;BME280;63200;48.810;12.352;2023-01-15T09:47:50;96187.63;;;10.60;63.75
74675;BME280;63200;48.810;12.352;2023-01-15T09:50:50;96180.25;;;10.60;63.63
74675;BME280;63200;48.810;12.352;2023-01-15T09:55:49;96170.50;;;10.42;64.44
74675;BME280;63200;48.810;12.352;2023-01-15T09:58:20;96159.06;;;10.22;65.18
74675;BME280;63200;48.810;12.352;2023-01-15T10:00:49;96186.41;;;10.34;65.33
74675;BME280;63200;48.810;12.352;2023-01-15T10:06:12;96219.31;;;10.02;67.08
74675;BME280;63200;48.810;12.352;2023-01-15T10:08:43;96214.66;;;9.03;67.30
74675;BME280;63200;48.810;12.352;2023-01-15T10:13:44;96263.41;;;8.33;69.32
74675;BME280;63200;48.810;12.352;2023-01-15T10:16:12;96267.38;;;8.08;70.02
74675;BME280;63200;48.810;12.352;2023-01-15T10:18:38;96257.50;;;7.84;70.23
74675;BME280;63200;48.810;12.352;2023-01-15T10:27:20;96278.25;;;7.56;72.33
74675;BME280;63200;48.810;12.352;2023-01-15T10:29:48;96309.47;;;7.62;72.73
74675;BME280;63200;48.810;12.352;2023-01-15T10:38:15;96348.66;;;7.59;72.48
74675;BME280;63200;48.810;12.352;2023-01-15T10:41:13;96362.03;;;7.50;70.32
74675;BME280;63200;48.810;12.352;2023-01-15T10:46:23;96355.09;;;7.25;69.76
74675;BME280;63200;48.810;12.352;2023-01-15T10:48:56;96378.44;;;7.35;68.44
74675;BME280;63200;48.810;12.352;2023-01-15T10:54:35;96396.84;;;7.33;68.62
74675;BME280;63200;48.810;12.352;2023-01-15T10:57:06;96397.13;;;7.31;68.16
74675;BME280;63200;48.810;12.352;2023-01-15T10:59:56;96412.16;;;7.19;67.35
74675;BME280;63200;48.810;12.352;2023-01-15T11:02:35;96395.88;;;7.24;67.76
74675;BME280;63200;48.810;12.352;2023-01-15T11:05:03;96418.28;;;7.24;67.20
74675;BME280;63200;48.810;12.352;2023-01-15T11:07:39;96421.97;;;7.09;66.60
74675;BME280;63200;48.810;12.352;2023-01-15T11:10:08;96420.72;;;7.02;67.30
74675;BME280;63200;48.810;12.352;2023-01-15T11:12:38;96432.41;;;6.92;67.68
74675;BME280;63200;48.810;12.352;2023-01-15T11:15:24;96441.38;;;6.87;68.04
74675;BME280;63200;48.810;12.352;2023-01-15T11:18:19;96419.09;;;6.76;68.50
74675;BME280;63200;48.810;12.352;2023-01-15T11:21:10;96399.53;;;6.65;68.93
74675;BME280;63200;48.810;12.352;2023-01-15T11:23:37;96423.97;;;6.74;68.79
74675;BME280;63200;48.810;12.352;2023-01-15T11:26:03;96423.94;;;6.50;66.94
74675;BME280;63200;48.810;12.352;2023-01-15T11:28:38;96416.88;;;6.54;68.29
74675;BME280;63200;48.810;12.352;2023-01-15T11:31:06;96423.41;;;6.48;67.86
74675;BME280;63200;48.810;12.352;2023-01-15T11:33:32;96388.19;;;6.39;67.53
74675;BME280;63200;48.810;12.352;2023-01-15T11:36:03;96399.22;;;6.38;68.86
74675;BME280;63200;48.810;12.352;2023-01-15T11:38:44;96401.16;;;6.32;69.21
74675;BME280;63200;48.810;12.352;2023-01-15T11:41:21;96400.38;;;6.31;68.12
74675;BME280;63200;48.810;12.352;2023-01-15T11:43:57;96417.50;;;6.16;68.51
74675;BME280;63200;48.810;12.352;2023-01-15T11:46:45;96419.94;;;6.13;67.52
74675;BME280;63200;48.810;12.352;2023-01-15T11:49:29;96429.38;;;6.10;68.74
74675;BME280;63200;48.810;12.352;2023-01-15T11:52:18;96418.97;;;5.93;68.34
74675;BME280;63200;48.810;12.352;2023-01-15T11:54:48;96426.25;;;5.93;67.89
74675;BME280;63200;48.810;12.352;2023-01-15T11:57:24;96421.72;;;5.83;68.42
74675;BME280;63200;48.810;12.352;2023-01-15T11:59:50;96410.19;;;5.77;69.23
74675;BME280;63200;48.810;12.352;2023-01-15T12:02:36;96433.00;;;5.90;69.76
74675;BME280;63200;48.810;12.352;2023-01-15T12:05:26;96428.69;;;5.89;69.35
74675;BME280;63200;48.810;12.352;2023-01-15T12:07:55;96444.56;;;5.91;69.23
74675;BME280;63200;48.810;12.352;2023-01-15T12:10:23;96418.25;;;5.77;69.76
74675;BME280;63200;48.810;12.352;2023-01-15T12:13:27;96434.13;;;5.84;69.97
74675;BME280;63200;48.810;12.352;2023-01-15T12:18:44;96460.75;;;5.86;70.03
74675;BME280;63200;48.810;12.352;2023-01-15T12:21:29;96455.03;;;6.03;70.34
74675;BME280;63200;48.810;12.352;2023-01-15T12:29:33;96463.44;;;5.91;69.75
74675;BME280;63200;48.810;12.352;2023-01-15T12:32:09;96506.06;;;5.78;69.41
74675;BME280;63200;48.810;12.352;2023-01-15T12:37:20;96521.97;;;5.70;70.02
74675;BME280;63200;48.810;12.352;2023-01-15T12:42:40;96475.44;;;5.64;70.77
74675;BME280;63200;48.810;12.352;2023-01-15T12:45:29;96485.19;;;5.55;71.04
74675;BME280;63200;48.810;12.352;2023-01-15T12:48:17;96544.91;;;5.62;70.43
74675;BME280;63200;48.810;12.352;2023-01-15T12:50:56;96529.63;;;5.47;70.17
74675;BME280;63200;48.810;12.352;2023-01-15T12:53:38;96572.06;;;5.76;69.92
74675;BME280;63200;48.810;12.352;2023-01-15T12:58:57;96574.78;;;5.65;69.26
74675;BME280;63200;48.810;12.352;2023-01-15T13:02:12;96585.00;;;5.63;68.76
74675;BME280;63200;48.810;12.352;2023-01-15T13:04:56;96589.06;;;5.61;68.18
74675;BME280;63200;48.810;12.352;2023-01-15T13:07:33;96589.06;;;5.61;67.67
74675;BME280;63200;48.810;12.352;2023-01-15T13:10:08;96557.38;;;5.37;66.51
74675;BME280;63200;48.810;12.352;2023-01-15T13:12:35;96583.75;;;5.35;66.03
74675;BME280;63200;48.810;12.352;2023-01-15T13:15:02;96606.06;;;5.46;65.89
74675;BME280;63200;48.810;12.352;2023-01-15T13:17:41;96613.63;;;5.44;66.43
74675;BME280;63200;48.810;12.352;2023-01-15T13:20:18;96616.59;;;5.37;66.13
74675;BME280;63200;48.810;12.352;2023-01-15T13:23:08;96618.75;;;5.40;66.47
74675;BME280;63200;48.810;12.352;2023-01-15T13:33:47;96648.63;;;5.39;66.08
74675;BME280;63200;48.810;12.352;2023-01-15T13:36:23;96657.22;;;5.36;67.42
74675;BME280;63200;48.810;12.352;2023-01-15T13:38:52;96620.94;;;5.17;67.53
74675;BME280;63200;48.810;12.352;2023-01-15T13:41:23;96680.38;;;5.37;67.16
74675;BME280;63200;48.810;12.352;2023-01-15T13:44:20;96680.91;;;5.33;66.66
74675;BME280;63200;48.810;12.352;2023-01-15T13:47:03;96659.66;;;5.16;67.88
74675;BME280;63200;48.810;12.352;2023-01-15T13:49:44;96689.28;;;5.32;67.42
74675;BME280;63200;48.810;12.352;2023-01-15T13:52:25;96694.09;;;5.25;67.99
74675;BME280;63200;48.810;12.352;2023-01-15T13:54:52;96686.03;;;5.20;66.89
74675;BME280;63200;48.810;12.352;2023-01-15T13:57:22;96689.25;;;5.22;64.88
74675;BME280;63200;48.810;12.352;2023-01-15T13:59:47;96694.38;;;5.28;63.10
74675;BME280;63200;48.810;12.352;2023-01-15T14:02:33;96695.44;;;5.17;63.20
74675;BME280;63200;48.810;12.352;2023-01-15T14:04:59;96679.56;;;5.05;64.77
74675;BME280;63200;48.810;12.352;2023-01-15T14:07:36;96686.56;;;5.01;65.07
74675;BME280;63200;48.810;12.352;2023-01-15T14:14:01;96737.94;;;5.05;65.79
74675;BME280;63200;48.810;12.352;2023-01-15T14:16:11;96727.72;;;4.91;66.22
74675;BME280;63200;48.810;12.352;2023-01-15T14:19:02;96712.84;;;4.63;68.08
74675;BME280;63200;48.810;12.352;2023-01-15T14:27:12;96758.59;;;4.73;64.67
74675;BME280;63200;48.810;12.352;2023-01-15T14:32:34;96756.97;;;4.67;65.16
74675;BME280;63200;48.810;12.352;2023-01-15T14:35:11;96772.81;;;4.63;66.17
74675;BME280;63200;48.810;12.352;2023-01-15T14:37:52;96774.94;;;4.61;65.92
74675;BME280;63200;48.810;12.352;2023-01-15T14:40:24;96792.41;;;4.59;66.62
74675;BME280;63200;48.810;12.352;2023-01-15T14:42:53;96782.75;;;4.58;68.10
74675;BME280;63200;48.810;12.352;2023-01-15T14:45:31;96764.84;;;4.26;67.11
74675;BME280;63200;48.810;12.352;2023-01-15T14:48:03;96799.59;;;4.43;67.40